createdAt,value
2018-05-26T00:00:15.022Z,96.84
2018-05-26T00:01:15.181Z,96.56
2018-05-26T00:02:15.382Z,96.56
2018-05-26T00:03:15.540Z,96.75
2018-05-26T00:04:15.707Z,97.33
2018-05-26T00:05:15.889Z,97.61
2018-05-26T00:06:16.036Z,98.28
2018-05-26T00:07:16.213Z,98.38
2018-05-26T00:08:16.395Z,98.57
2018-05-26T00:09:16.563Z,98.57
2018-05-26T00:10:16.733Z,98.00
2018-05-26T00:11:16.910Z,98.00
2018-05-26T00:12:17.065Z,97.52
2018-05-26T00:13:17.238Z,97.52
2018-05-26T00:14:17.409Z,97.61
2018-05-26T00:15:17.569Z,96.94
2018-05-26T00:16:17.732Z,97.23
2018-05-26T00:17:17.933Z,96.84
2018-05-26T00:18:18.095Z,96.66
2018-05-26T00:19:18.262Z,96.47
2018-05-26T00:20:18.433Z,97.33
2018-05-26T00:21:18.613Z,97.23
2018-05-26T00:22:18.785Z,97.23
2018-05-26T00:23:18.976Z,96.94
2018-05-26T00:24:19.123Z,97.33
2018-05-26T00:25:19.292Z,97.61
2018-05-26T00:26:19.453Z,98.00
2018-05-26T00:27:19.619Z,97.71
2018-05-26T00:28:19.800Z,97.33
2018-05-26T00:29:19.962Z,97.04
2018-05-26T00:30:20.146Z,97.14
2018-05-26T00:31:20.311Z,97.33
2018-05-26T00:32:20.484Z,96.84
2018-05-26T00:33:20.654Z,97.52
2018-05-26T00:34:20.831Z,97.23
2018-05-26T00:35:20.993Z,96.94
2018-05-26T00:36:21.169Z,97.42
2018-05-26T00:37:21.358Z,96.84
2018-05-26T00:38:21.527Z,96.47
2018-05-26T00:39:21.720Z,96.56
2018-05-26T00:40:21.875Z,96.75
2018-05-26T00:41:22.038Z,96.56
2018-05-26T00:42:22.224Z,96.66
2018-05-26T00:43:22.387Z,96.37
2018-05-26T00:44:22.560Z,96.37
2018-05-26T00:45:22.732Z,96.47
2018-05-26T00:46:22.911Z,96.37
2018-05-26T00:47:23.088Z,96.80
2018-05-26T00:48:23.274Z,96.89
2018-05-26T00:49:23.432Z,97.28
2018-05-26T00:50:23.616Z,96.99
2018-05-26T00:51:23.802Z,97.75
2018-05-26T00:52:23.968Z,97.47
2018-05-26T00:53:24.127Z,97.56
2018-05-26T00:54:24.300Z,97.18
2018-05-26T00:55:24.472Z,97.75
2018-05-26T00:56:24.644Z,97.85
2018-05-26T00:57:24.794Z,97.38
2018-05-26T00:58:24.980Z,97.56
2018-05-26T00:59:25.136Z,97.47
2018-05-26T01:00:25.306Z,97.18
2018-05-26T01:01:25.489Z,97.56
2018-05-26T01:02:25.669Z,97.56
2018-05-26T01:03:25.844Z,97.75
2018-05-26T01:04:26.023Z,97.85
2018-05-26T01:05:26.201Z,97.66
2018-05-26T01:06:26.377Z,97.38
2018-05-26T01:07:26.554Z,97.52
2018-05-26T01:08:26.723Z,97.61
2018-05-26T01:09:26.891Z,97.56
2018-05-26T01:10:27.063Z,97.18
2018-05-26T01:11:27.219Z,98.05
2018-05-26T01:12:27.398Z,98.05
2018-05-26T01:13:27.594Z,98.05
2018-05-26T01:14:27.765Z,98.14
2018-05-26T01:15:27.944Z,98.05
2018-05-26T01:16:28.120Z,98.14
2018-05-26T01:17:28.297Z,98.24
2018-05-26T01:18:28.480Z,98.14
2018-05-26T01:19:28.653Z,97.95
2018-05-26T01:20:29.076Z,97.95
2018-05-26T01:21:29.001Z,97.85
2018-05-26T01:22:29.180Z,97.95
2018-05-26T01:23:29.354Z,97.47
2018-05-26T01:24:29.525Z,97.75
2018-05-26T01:25:29.706Z,96.99
2018-05-26T01:26:29.884Z,96.80
2018-05-26T01:27:30.075Z,97.18
2018-05-26T01:28:30.244Z,96.51
2018-05-26T01:29:30.422Z,96.70
2018-05-26T01:30:30.847Z,96.80
2018-05-26T01:31:30.781Z,96.61
2018-05-26T01:32:30.965Z,96.61
2018-05-26T01:33:31.155Z,96.42
2018-05-26T01:34:31.325Z,96.80
2018-05-26T01:35:31.486Z,96.80
2018-05-26T01:36:31.660Z,96.42
2018-05-26T01:37:31.844Z,96.84
2018-05-26T01:38:32.012Z,96.61
2018-05-26T01:39:32.194Z,96.80
2018-05-26T01:40:32.366Z,96.37
2018-05-26T01:41:32.545Z,96.70
2018-05-26T01:42:32.723Z,96.80
2018-05-26T01:43:32.914Z,97.18
2018-05-26T01:44:33.070Z,96.80
2018-05-26T01:45:33.249Z,96.66
2018-05-26T01:46:33.432Z,96.84
2018-05-26T01:47:33.612Z,96.66
2018-05-26T01:48:33.799Z,97.13
2018-05-26T01:49:33.970Z,96.80
2018-05-26T01:50:34.150Z,96.66
2018-05-26T01:51:34.336Z,96.47
2018-05-26T01:52:34.492Z,96.47
2018-05-26T01:53:34.667Z,97.42
2018-05-26T01:54:34.857Z,96.47
2018-05-26T01:55:35.024Z,96.94
2018-05-26T01:56:35.196Z,97.33
2018-05-26T01:57:35.375Z,97.90
2018-05-26T01:58:35.537Z,97.90
2018-05-26T01:59:35.713Z,97.33
2018-05-26T02:00:35.888Z,97.04
2018-05-26T02:01:36.070Z,96.70
2018-05-26T02:02:36.230Z,96.42
2018-05-26T02:03:36.401Z,97.04
2018-05-26T02:04:36.569Z,97.23
2018-05-26T02:05:36.730Z,96.66
2018-05-26T02:06:36.915Z,96.80
2018-05-26T02:07:37.075Z,96.70
2018-05-26T02:08:37.245Z,96.37
2018-05-26T02:09:37.411Z,96.61
2018-05-26T02:10:37.581Z,96.56
2018-05-26T02:11:37.749Z,96.61
2018-05-26T02:12:37.921Z,96.27
2018-05-26T02:13:38.106Z,96.37
2018-05-26T02:14:38.280Z,96.37
2018-05-26T02:15:38.454Z,96.47
2018-05-26T02:16:38.625Z,96.37
2018-05-26T02:17:38.777Z,96.47
2018-05-26T02:18:38.951Z,96.37
2018-05-26T02:19:39.144Z,96.37
2018-05-26T02:20:39.298Z,96.56
2018-05-26T02:21:39.469Z,97.33
2018-05-26T02:22:39.621Z,96.94
2018-05-26T02:23:39.790Z,97.13
2018-05-26T02:24:39.974Z,97.23
2018-05-26T02:25:40.142Z,97.80
2018-05-26T02:26:40.304Z,97.90
2018-05-26T02:27:40.487Z,97.71
2018-05-26T02:28:40.661Z,97.80
2018-05-26T02:29:40.841Z,97.85
2018-05-26T02:30:41.011Z,98.00
2018-05-26T02:31:41.164Z,97.37
2018-05-26T02:32:41.334Z,97.80
2018-05-26T02:33:41.505Z,97.28
2018-05-26T02:34:41.664Z,97.13
2018-05-26T02:35:41.836Z,97.08
2018-05-26T02:36:42.020Z,97.18
2018-05-26T02:37:42.170Z,96.99
2018-05-26T02:38:42.365Z,97.28
2018-05-26T02:39:42.546Z,97.33
2018-05-26T02:40:42.719Z,97.08
2018-05-26T02:41:42.883Z,97.28
2018-05-26T02:42:43.049Z,97.08
2018-05-26T02:43:43.231Z,97.13
2018-05-26T02:44:43.404Z,97.42
2018-05-26T02:45:43.579Z,97.13
2018-05-26T02:46:43.753Z,97.33
2018-05-26T02:47:43.928Z,96.75
2018-05-26T02:48:44.095Z,96.84
2018-05-26T02:49:44.280Z,96.37
2018-05-26T02:50:44.448Z,97.28
2018-05-26T02:51:44.628Z,97.28
2018-05-26T02:52:44.784Z,97.66
2018-05-26T02:53:44.966Z,97.56
2018-05-26T02:54:45.142Z,97.75
2018-05-26T02:55:45.315Z,97.18
2018-05-26T02:56:45.487Z,97.18
2018-05-26T02:57:45.659Z,97.47
2018-05-26T02:58:45.824Z,96.89
2018-05-26T02:59:46.011Z,97.18
2018-05-26T03:00:46.208Z,97.08
2018-05-26T03:01:46.371Z,96.32
2018-05-26T03:02:46.548Z,96.51
2018-05-26T03:03:46.734Z,96.42
2018-05-26T03:04:46.889Z,96.32
2018-05-26T03:05:47.061Z,96.80
2018-05-26T03:06:47.246Z,96.70
2018-05-26T03:07:47.401Z,96.13
2018-05-26T03:08:47.579Z,96.42
2018-05-26T03:09:47.768Z,96.80
2018-05-26T03:10:47.951Z,96.51
2018-05-26T03:11:48.110Z,96.61
2018-05-26T03:12:48.283Z,96.51
2018-05-26T03:13:48.463Z,97.56
2018-05-26T03:14:48.639Z,97.18
2018-05-26T03:15:48.801Z,97.47
2018-05-26T03:16:49.211Z,97.66
2018-05-26T03:17:49.131Z,97.56
2018-05-26T03:18:49.307Z,97.56
2018-05-26T03:19:49.492Z,96.80
2018-05-26T03:20:49.657Z,96.42
2018-05-26T03:21:49.832Z,96.80
2018-05-26T03:22:50.012Z,96.42
2018-05-26T03:23:50.178Z,96.51
2018-05-26T03:24:50.354Z,96.51
2018-05-26T03:25:50.517Z,96.32
2018-05-26T03:26:50.686Z,96.61
2018-05-26T03:27:50.875Z,95.65
2018-05-26T03:28:51.064Z,95.94
2018-05-26T03:29:51.232Z,95.65
2018-05-26T03:30:51.412Z,95.46
2018-05-26T03:31:51.589Z,96.13
2018-05-26T03:32:51.775Z,95.75
2018-05-26T03:33:51.954Z,95.75
2018-05-26T03:34:52.131Z,96.61
2018-05-26T03:35:52.296Z,96.32
2018-05-26T03:36:52.728Z,96.42
2018-05-26T03:37:52.661Z,96.13
2018-05-26T03:38:52.841Z,96.13
2018-05-26T03:39:53.020Z,95.75
2018-05-26T03:40:53.198Z,96.03
2018-05-26T03:41:53.358Z,96.03
2018-05-26T03:42:53.535Z,95.75
2018-05-26T03:43:53.715Z,95.75
2018-05-26T03:44:53.901Z,96.13
2018-05-26T03:45:54.079Z,96.13
2018-05-26T03:46:54.499Z,96.03
2018-05-26T03:47:54.438Z,96.13
2018-05-26T03:48:54.608Z,95.65
2018-05-26T03:49:54.798Z,95.75
2018-05-26T03:50:54.973Z,95.75
2018-05-26T03:51:55.150Z,95.84
2018-05-26T03:52:55.331Z,96.03
2018-05-26T03:53:55.529Z,96.03
2018-05-26T03:54:55.698Z,95.65
2018-05-26T03:55:55.878Z,96.61
2018-05-26T03:56:56.060Z,96.32
2018-05-26T03:57:56.247Z,96.32
2018-05-26T03:58:56.432Z,96.32
2018-05-26T03:59:56.603Z,96.22
2018-05-26T04:00:56.778Z,96.03
2018-05-26T04:01:56.959Z,95.65
2018-05-26T04:02:57.140Z,96.03
2018-05-26T04:03:57.323Z,96.03
2018-05-26T04:04:57.502Z,95.75
2018-05-26T04:05:57.683Z,95.75
2018-05-26T04:06:57.872Z,95.17
2018-05-26T04:07:58.060Z,95.07
2018-05-26T04:08:58.232Z,94.79
2018-05-26T04:09:58.412Z,95.07
2018-05-26T04:10:58.591Z,95.56
2018-05-26T04:11:58.775Z,94.98
2018-05-26T04:12:58.953Z,95.17
2018-05-26T04:13:59.134Z,94.70
2018-05-26T04:14:59.320Z,94.98
2018-05-26T04:15:59.499Z,95.36
2018-05-26T04:16:59.683Z,95.46
2018-05-26T04:17:59.865Z,95.36
2018-05-26T04:19:00.041Z,96.13
2018-05-26T04:20:00.225Z,96.03
2018-05-26T04:21:00.646Z,95.79
2018-05-26T04:22:00.584Z,94.74
2018-05-26T04:23:00.761Z,93.11
2018-05-26T04:25:01.120Z,88.79
2018-05-26T04:26:01.302Z,87.49
2018-05-26T04:27:01.480Z,84.95
2018-05-26T04:28:01.666Z,83.31
2018-05-26T04:29:01.841Z,82.30
2018-05-26T04:30:02.031Z,81.28
2018-05-26T04:31:02.211Z,80.32
2018-05-26T04:32:02.406Z,78.44
2018-05-26T04:33:02.584Z,77.09
2018-05-26T04:34:02.757Z,78.15
2018-05-26T04:35:02.942Z,77.71
2018-05-26T04:36:03.124Z,77.13
2018-05-26T04:37:03.305Z,75.63
2018-05-26T04:38:03.492Z,75.54
2018-05-26T04:39:03.682Z,75.24
2018-05-26T04:40:03.860Z,74.86
2018-05-26T04:41:04.042Z,75.49
2018-05-26T04:42:04.225Z,75.54
2018-05-26T04:43:04.406Z,74.48
2018-05-26T04:44:04.591Z,73.71
2018-05-26T04:45:04.775Z,72.78
2018-05-26T04:46:04.962Z,72.20
2018-05-26T04:47:05.149Z,72.11
2018-05-26T04:48:05.334Z,72.88
2018-05-26T04:49:05.524Z,72.49
2018-05-26T04:50:05.710Z,72.49
2018-05-26T04:51:05.898Z,71.66
2018-05-26T04:52:06.091Z,71.47
2018-05-26T04:53:06.266Z,70.79
2018-05-26T04:54:06.456Z,70.70
2018-05-26T04:55:06.651Z,70.41
2018-05-26T04:56:06.831Z,70.60
2018-05-26T04:57:07.012Z,69.96
2018-05-26T04:58:07.199Z,69.57
2018-05-26T04:59:07.384Z,68.42
2018-05-26T05:00:07.572Z,69.03
2018-05-26T05:01:07.769Z,68.07
2018-05-26T05:02:07.956Z,68.23
2018-05-26T05:03:08.179Z,68.80
2018-05-26T05:04:08.321Z,68.90
2018-05-26T05:05:08.519Z,69.77
2018-05-26T05:06:08.707Z,70.06
2018-05-26T05:07:08.896Z,69.13
2018-05-26T05:08:09.078Z,67.97
2018-05-26T05:09:09.281Z,67.23
2018-05-26T05:10:09.451Z,66.36
2018-05-26T05:11:09.647Z,66.36
2018-05-26T05:12:09.830Z,66.27
2018-05-26T05:13:10.018Z,67.58
2018-05-26T05:14:10.208Z,67.14
2018-05-26T05:15:10.392Z,66.46
2018-05-26T05:16:10.824Z,66.59
2018-05-26T05:17:10.775Z,65.59
2018-05-26T05:18:10.964Z,65.05
2018-05-26T05:19:11.151Z,65.24
2018-05-26T05:20:11.337Z,65.63
2018-05-26T05:21:11.522Z,65.24
2018-05-26T05:22:11.713Z,65.37
2018-05-26T05:23:11.906Z,64.56
2018-05-26T05:24:12.095Z,64.31
2018-05-26T05:25:12.288Z,64.76
2018-05-26T05:26:12.473Z,64.98
2018-05-26T05:27:12.667Z,63.28
2018-05-26T05:28:12.854Z,63.18
2018-05-26T05:29:13.053Z,62.79
2018-05-26T05:30:13.248Z,62.24
2018-05-26T05:31:13.419Z,61.66
2018-05-26T05:32:13.618Z,61.30
2018-05-26T05:33:13.816Z,61.37
2018-05-26T05:34:13.994Z,62.79
2018-05-26T05:35:14.174Z,63.37
2018-05-26T05:36:14.354Z,62.50
2018-05-26T05:37:14.550Z,61.92
2018-05-26T05:38:14.734Z,62.53
2018-05-26T05:39:14.924Z,62.60
2018-05-26T05:40:15.118Z,63.24
2018-05-26T05:41:15.300Z,63.18
2018-05-26T05:42:15.490Z,62.73
2018-05-26T05:43:15.696Z,61.89
2018-05-26T05:44:15.882Z,61.11
2018-05-26T05:45:16.076Z,61.66
2018-05-26T05:46:16.260Z,61.24
2018-05-26T05:47:16.451Z,60.57
2018-05-26T05:48:16.642Z,60.66
2018-05-26T05:49:16.832Z,59.98
2018-05-26T05:50:17.025Z,60.27
2018-05-26T05:51:17.232Z,60.08
2018-05-26T05:52:17.413Z,61.02
2018-05-26T05:53:17.593Z,61.18
2018-05-26T05:54:17.784Z,64.01
2018-05-26T05:55:17.974Z,64.63
2018-05-26T05:56:18.238Z,64.34
2018-05-26T05:57:18.359Z,63.85
2018-05-26T05:58:18.674Z,64.05
2018-05-26T05:59:18.764Z,64.14
2018-05-26T06:00:18.936Z,62.73
2018-05-26T06:01:19.133Z,63.08
2018-05-26T06:02:19.324Z,62.82
2018-05-26T06:03:19.504Z,62.47
2018-05-26T06:04:19.694Z,61.89
2018-05-26T06:05:19.896Z,61.60
2018-05-26T06:06:20.185Z,61.69
2018-05-26T06:07:20.226Z,61.21
2018-05-26T06:08:20.625Z,61.50
2018-05-26T06:09:20.675Z,62.05
2018-05-26T06:10:20.844Z,62.47
2018-05-26T06:11:21.043Z,62.37
2018-05-26T06:12:21.241Z,63.40
2018-05-26T06:13:21.597Z,62.85
2018-05-26T06:14:21.739Z,62.63
2018-05-26T06:15:21.854Z,63.40
2018-05-26T06:16:22.059Z,63.31
2018-05-26T06:17:22.218Z,64.08
2018-05-26T06:18:22.501Z,63.63
2018-05-26T06:19:22.641Z,63.14
2018-05-26T06:20:22.840Z,63.24
2018-05-26T06:21:23.060Z,62.50
2018-05-26T06:22:23.199Z,62.27
2018-05-26T06:23:23.401Z,62.59
2018-05-26T06:24:23.561Z,61.08
2018-05-26T06:25:23.750Z,60.88
2018-05-26T06:26:23.988Z,61.08
2018-05-26T06:27:24.124Z,60.91
2018-05-26T06:28:24.302Z,60.04
2018-05-26T06:29:24.496Z,59.84
2018-05-26T06:30:24.688Z,60.04
2018-05-26T06:31:24.875Z,59.20
2018-05-26T06:32:25.062Z,58.69
2018-05-26T06:33:25.265Z,59.00
2018-05-26T06:34:25.452Z,59.33
2018-05-26T06:35:25.616Z,58.84
2018-05-26T06:36:25.806Z,58.06
2018-05-26T06:37:25.991Z,57.68
2018-05-26T06:38:26.163Z,56.57
2018-05-26T06:39:26.338Z,56.54
2018-05-26T06:40:26.527Z,55.79
2018-05-26T06:41:26.712Z,55.77
2018-05-26T06:42:26.898Z,55.69
2018-05-26T06:43:27.096Z,55.69
2018-05-26T06:44:27.282Z,55.31
2018-05-26T06:45:27.472Z,55.11
2018-05-26T06:46:27.671Z,56.93
2018-05-26T06:47:27.852Z,57.75
2018-05-26T06:48:28.051Z,58.16
2018-05-26T06:49:28.240Z,58.36
2018-05-26T06:50:28.416Z,57.58
2018-05-26T06:51:28.614Z,57.70
2018-05-26T06:52:28.783Z,56.93
2018-05-26T06:53:28.976Z,56.57
2018-05-26T06:54:29.162Z,56.57
2018-05-26T06:55:29.363Z,56.01
2018-05-26T06:56:29.546Z,56.47
2018-05-26T06:57:29.738Z,56.76
2018-05-26T06:58:29.938Z,57.51
2018-05-26T06:59:30.108Z,57.51
2018-05-26T07:00:30.289Z,59.13
2018-05-26T07:01:30.720Z,61.89
2018-05-26T07:02:30.665Z,62.30
2018-05-26T07:03:30.860Z,61.46
2018-05-26T07:04:31.061Z,61.76
2018-05-26T07:05:31.264Z,62.43
2018-05-26T07:06:31.433Z,61.40
2018-05-26T07:07:31.597Z,61.36
2018-05-26T07:08:31.785Z,60.98
2018-05-26T07:09:31.967Z,61.46
2018-05-26T07:10:32.171Z,60.43
2018-05-26T07:11:32.351Z,59.71
2018-05-26T07:12:32.627Z,59.03
2018-05-26T07:13:32.805Z,59.16
2018-05-26T07:14:33.013Z,58.03
2018-05-26T07:15:33.181Z,56.86
2018-05-26T07:16:33.368Z,56.60
2018-05-26T07:17:33.540Z,56.01
2018-05-26T07:18:33.752Z,55.94
2018-05-26T07:19:33.963Z,55.73
2018-05-26T07:20:34.127Z,56.67
2018-05-26T07:21:34.305Z,57.70
2018-05-26T07:22:34.504Z,58.58
2018-05-26T07:23:34.684Z,57.15
2018-05-26T07:24:34.875Z,56.96
2018-05-26T07:25:35.066Z,57.61
2018-05-26T07:26:35.239Z,56.57
2018-05-26T07:27:35.419Z,56.67
2018-05-26T07:28:35.630Z,57.03
2018-05-26T07:29:35.804Z,57.51
2018-05-26T07:30:35.992Z,57.54
2018-05-26T07:31:36.162Z,56.30
2018-05-26T07:32:36.337Z,55.29
2018-05-26T07:33:36.516Z,54.71
2018-05-26T07:34:36.687Z,55.33
2018-05-26T07:35:36.903Z,55.55
2018-05-26T07:36:37.300Z,55.55
2018-05-26T07:37:37.231Z,55.17
2018-05-26T07:38:37.431Z,56.50
2018-05-26T07:39:37.623Z,56.89
2018-05-26T07:40:37.798Z,56.04
2018-05-26T07:41:37.972Z,55.39
2018-05-26T07:42:38.172Z,55.07
2018-05-26T07:43:38.365Z,55.10
2018-05-26T07:44:38.565Z,55.19
2018-05-26T07:45:38.715Z,54.88
2018-05-26T07:46:38.962Z,55.29
2018-05-26T07:47:39.079Z,55.10
2018-05-26T07:48:39.256Z,54.05
2018-05-26T07:49:39.438Z,53.69
2018-05-26T07:50:39.629Z,53.11
2018-05-26T07:51:39.796Z,53.50
2018-05-26T07:52:39.975Z,52.72
2018-05-26T07:53:40.156Z,53.11
2018-05-26T07:54:40.593Z,53.38
2018-05-26T07:55:40.540Z,54.25
2018-05-26T07:57:40.907Z,53.47
2018-05-26T07:58:41.132Z,52.53
2018-05-26T07:59:41.259Z,51.84
2018-05-26T08:00:41.424Z,53.35
2018-05-26T08:01:41.633Z,54.54
2018-05-26T08:02:41.963Z,53.77
2018-05-26T08:03:42.118Z,52.23
2018-05-26T08:04:42.234Z,51.67
2018-05-26T08:05:42.433Z,51.09
2018-05-26T08:06:42.607Z,50.51
2018-05-26T08:07:42.762Z,50.95
2018-05-26T08:08:42.955Z,56.47
2018-05-26T08:09:43.149Z,56.14
2018-05-26T08:10:43.321Z,56.34
2018-05-26T08:11:43.505Z,55.58
2018-05-26T08:12:43.674Z,55.49
2018-05-26T08:13:43.873Z,54.64
2018-05-26T08:14:44.039Z,53.35
2018-05-26T08:15:44.217Z,53.77
2018-05-26T08:16:44.427Z,53.28
2018-05-26T08:17:44.855Z,51.75
2018-05-26T08:18:44.788Z,52.26
2018-05-26T08:19:44.948Z,51.67
2018-05-26T08:20:45.133Z,50.43
2018-05-26T08:21:45.333Z,50.43
2018-05-26T08:22:45.510Z,49.58
2018-05-26T08:23:45.695Z,48.90
2018-05-26T08:24:45.877Z,49.12
2018-05-26T08:25:46.075Z,48.44
2018-05-26T08:26:46.266Z,48.27
2018-05-26T08:27:46.454Z,48.51
2018-05-26T08:28:46.649Z,51.07
2018-05-26T08:29:46.836Z,53.38
2018-05-26T08:30:47.033Z,53.93
2018-05-26T08:31:47.225Z,53.08
2018-05-26T08:32:47.403Z,51.75
2018-05-26T08:33:47.637Z,51.12
2018-05-26T08:34:47.769Z,49.85
2018-05-26T08:35:47.960Z,49.85
2018-05-26T08:36:48.139Z,50.24
2018-05-26T08:37:48.342Z,50.43
2018-05-26T08:38:48.771Z,50.34
2018-05-26T08:39:48.691Z,49.68
2018-05-26T08:40:48.863Z,48.80
2018-05-26T08:41:49.051Z,48.24
2018-05-26T08:42:49.237Z,47.56
2018-05-26T08:43:49.418Z,46.78
2018-05-26T08:44:49.583Z,47.29
2018-05-26T08:45:49.775Z,47.12
2018-05-26T08:46:49.946Z,46.59
2018-05-26T08:47:50.120Z,46.59
2018-05-26T08:48:50.551Z,48.29
2018-05-26T08:49:50.493Z,49.27
2018-05-26T08:50:50.725Z,48.56
2018-05-26T08:51:51.122Z,48.29
2018-05-26T08:52:51.055Z,48.12
2018-05-26T08:53:51.245Z,47.07
2018-05-26T08:54:51.493Z,45.15
2018-05-26T08:55:51.652Z,45.32
2018-05-26T08:56:51.789Z,46.31
2018-05-26T08:57:51.967Z,46.61
2018-05-26T08:58:52.160Z,46.90
2018-05-26T08:59:52.347Z,45.03
2018-05-26T09:00:52.526Z,43.15
2018-05-26T09:01:52.852Z,42.53
2018-05-26T09:02:52.913Z,41.16
2018-05-26T09:03:53.091Z,41.83
2018-05-26T09:04:53.311Z,41.65
2018-05-26T09:05:53.501Z,41.67
2018-05-26T09:06:53.689Z,42.02
2018-05-26T09:07:53.917Z,43.63
2018-05-26T09:08:54.083Z,44.19
2018-05-26T09:09:54.519Z,45.34
2018-05-26T09:10:54.435Z,45.48
2018-05-26T09:11:54.592Z,44.24
2018-05-26T09:13:54.960Z,41.65
2018-05-26T09:14:55.148Z,41.48
2018-05-26T09:15:55.322Z,41.26
2018-05-26T09:16:55.530Z,40.41
2018-05-26T09:17:55.686Z,41.36
2018-05-26T09:18:55.865Z,41.57
2018-05-26T09:19:56.072Z,43.55
2018-05-26T09:20:56.223Z,43.85
2018-05-26T09:21:56.447Z,44.06
2018-05-26T09:22:56.588Z,43.50
2018-05-26T09:23:56.781Z,42.65
2018-05-26T09:24:56.958Z,42.57
2018-05-26T09:25:57.137Z,42.55
2018-05-26T09:26:57.328Z,42.84
2018-05-26T09:27:57.533Z,43.52
2018-05-26T09:28:57.690Z,44.55
2018-05-26T09:29:57.881Z,44.16
2018-05-26T09:30:58.081Z,44.16
2018-05-26T09:31:58.251Z,45.21
2018-05-26T09:32:58.452Z,45.72
2018-05-26T09:33:58.672Z,45.72
2018-05-26T09:34:58.789Z,45.62
2018-05-26T09:35:59.024Z,45.31
2018-05-26T09:36:59.163Z,46.59
2018-05-26T09:37:59.313Z,44.96
2018-05-26T09:38:59.516Z,44.18
2018-05-26T09:39:59.743Z,43.89
2018-05-26T09:40:59.943Z,43.62
2018-05-26T09:42:00.075Z,42.96
2018-05-26T09:43:00.252Z,42.40
2018-05-26T09:44:00.699Z,42.40
2018-05-26T09:45:00.655Z,42.49
2018-05-26T09:46:00.807Z,42.35
2018-05-26T09:47:01.012Z,43.54
2018-05-26T09:48:01.211Z,43.81
2018-05-26T09:49:01.392Z,44.09
2018-05-26T09:50:01.569Z,46.74
2018-05-26T09:51:01.776Z,46.64
2018-05-26T09:52:01.952Z,47.42
2018-05-26T09:53:02.175Z,47.57
2018-05-26T09:54:02.316Z,48.18
2018-05-26T09:55:02.496Z,48.08
2018-05-26T09:56:02.722Z,46.94
2018-05-26T09:57:02.845Z,48.25
2018-05-26T09:58:03.046Z,46.84
2018-05-26T09:59:03.212Z,46.35
2018-05-26T10:00:03.410Z,46.11
2018-05-26T10:01:03.629Z,44.96
2018-05-26T10:02:03.773Z,44.10
2018-05-26T10:03:03.944Z,44.10
2018-05-26T10:04:04.134Z,44.23
2018-05-26T10:05:04.305Z,44.01
2018-05-26T10:06:04.490Z,44.55
2018-05-26T10:07:04.669Z,46.08
2018-05-26T10:08:05.081Z,46.86
2018-05-26T10:09:05.010Z,46.28
2018-05-26T10:10:05.217Z,45.87
2018-05-26T10:11:05.384Z,45.60
2018-05-26T10:12:05.576Z,45.91
2018-05-26T10:13:05.765Z,45.60
2018-05-26T10:14:05.999Z,46.62
2018-05-26T10:15:06.420Z,44.97
2018-05-26T10:16:06.339Z,45.77
2018-05-26T10:17:06.508Z,44.79
2018-05-26T10:18:06.920Z,44.87
2018-05-26T10:19:06.849Z,44.70
2018-05-26T10:20:07.024Z,44.02
2018-05-26T10:21:07.208Z,44.48
2018-05-26T10:22:07.393Z,44.60
2018-05-26T10:23:07.555Z,44.62
2018-05-26T10:24:07.756Z,44.60
2018-05-26T10:25:07.903Z,45.18
2018-05-26T10:26:08.079Z,44.89
2018-05-26T10:27:08.251Z,45.38
2018-05-26T10:28:08.438Z,44.62
2018-05-26T10:29:08.630Z,44.89
2018-05-26T10:30:08.782Z,46.04
2018-05-26T10:31:08.976Z,45.48
2018-05-26T10:32:09.165Z,46.04
2018-05-26T10:33:09.357Z,46.33
2018-05-26T10:34:10.075Z,47.08
2018-05-26T10:35:09.747Z,47.16
2018-05-26T10:36:09.915Z,46.79
2018-05-26T10:37:10.107Z,46.94
2018-05-26T10:38:10.300Z,45.79
2018-05-26T10:39:10.462Z,45.01
2018-05-26T10:40:10.650Z,45.75
2018-05-26T10:41:10.822Z,46.60
2018-05-26T10:42:10.999Z,46.23
2018-05-26T10:43:11.173Z,46.06
2018-05-26T10:44:11.366Z,46.25
2018-05-26T10:45:11.576Z,45.28
2018-05-26T10:46:11.753Z,45.50
2018-05-26T10:47:11.994Z,44.92
2018-05-26T10:48:12.136Z,44.72
2018-05-26T10:49:12.318Z,45.28
2018-05-26T10:50:12.494Z,45.77
2018-05-26T10:51:12.679Z,45.43
2018-05-26T10:52:13.107Z,46.11
2018-05-26T10:53:13.055Z,45.62
2018-05-26T10:54:13.241Z,46.31
2018-05-26T10:55:13.397Z,46.42
2018-05-26T10:56:13.594Z,46.33
2018-05-26T10:57:13.774Z,45.57
2018-05-26T10:58:13.962Z,44.62
2018-05-26T10:59:14.393Z,44.33
2018-05-26T11:00:14.327Z,44.04
2018-05-26T11:01:14.518Z,43.96
2018-05-26T11:02:14.697Z,43.96
2018-05-26T11:03:14.871Z,44.16
2018-05-26T11:04:15.084Z,44.53
2018-05-26T11:05:15.272Z,44.62
2018-05-26T11:06:15.418Z,45.21
2018-05-26T11:07:15.572Z,44.62
2018-05-26T11:08:15.754Z,44.06
2018-05-26T11:09:15.932Z,43.67
2018-05-26T11:10:16.143Z,43.70
2018-05-26T11:11:16.321Z,43.60
2018-05-26T11:12:16.519Z,43.40
2018-05-26T11:13:16.683Z,43.23
2018-05-26T11:14:16.850Z,43.30
2018-05-26T11:15:17.030Z,43.60
2018-05-26T11:16:17.240Z,43.79
2018-05-26T11:17:17.384Z,43.40
2018-05-26T11:18:17.580Z,43.87
2018-05-26T11:19:17.745Z,45.21
2018-05-26T11:20:18.048Z,44.55
2018-05-26T11:21:18.114Z,43.79
2018-05-26T11:22:18.333Z,43.33
2018-05-26T11:23:18.781Z,43.50
2018-05-26T11:24:18.696Z,44.16
2018-05-26T11:25:18.886Z,44.24
2018-05-26T11:26:19.158Z,45.31
2018-05-26T11:27:19.256Z,45.60
2018-05-26T11:28:19.466Z,44.53
2018-05-26T11:29:19.633Z,43.38
2018-05-26T11:30:19.803Z,43.21
2018-05-26T11:31:19.975Z,42.33
2018-05-26T11:32:20.151Z,42.55
2018-05-26T11:33:20.333Z,43.29
2018-05-26T11:34:20.498Z,43.75
2018-05-26T11:35:20.692Z,43.07
2018-05-26T11:36:20.861Z,41.93
2018-05-26T11:37:21.035Z,42.11
2018-05-26T11:38:21.197Z,42.11
2018-05-26T11:39:21.385Z,42.58
2018-05-26T11:40:21.561Z,42.11
2018-05-26T11:41:21.754Z,42.66
2018-05-26T11:42:21.933Z,43.26
2018-05-26T11:43:22.115Z,42.56
2018-05-26T11:44:22.299Z,42.76
2018-05-26T11:45:22.485Z,43.34
2018-05-26T11:46:22.677Z,43.54
2018-05-26T11:47:22.853Z,43.92
2018-05-26T11:48:23.027Z,43.85
2018-05-26T11:49:23.205Z,42.78
2018-05-26T11:50:23.375Z,42.68
2018-05-26T11:51:23.538Z,41.93
2018-05-26T11:53:23.989Z,41.24
2018-05-26T11:54:24.116Z,40.66
2018-05-26T11:55:24.286Z,40.78
2018-05-26T11:56:24.506Z,40.78
2018-05-26T11:57:24.662Z,41.57
2018-05-26T11:58:24.801Z,40.70
2018-05-26T11:59:24.983Z,41.48
2018-05-26T12:00:25.172Z,40.50
2018-05-26T12:01:25.352Z,40.89
2018-05-26T12:02:25.540Z,40.80
2018-05-26T12:03:25.719Z,40.13
2018-05-26T12:04:25.919Z,40.37
2018-05-26T12:05:26.076Z,41.16
2018-05-26T12:06:26.257Z,40.39
2018-05-26T12:07:26.683Z,41.44
2018-05-26T12:08:26.611Z,42.29
2018-05-26T12:09:26.785Z,42.56
2018-05-26T12:11:27.126Z,42.78
2018-05-26T12:12:27.313Z,42.19
2018-05-26T12:13:27.504Z,41.93
2018-05-26T12:14:27.703Z,41.14
2018-05-26T12:15:27.865Z,40.37
2018-05-26T12:16:28.047Z,40.85
2018-05-26T12:17:28.257Z,40.27
2018-05-26T12:18:28.372Z,40.47
2018-05-26T12:19:28.552Z,41.16
2018-05-26T12:20:28.755Z,40.68
2018-05-26T12:21:28.919Z,40.29
2018-05-26T12:22:29.112Z,41.26
2018-05-26T12:23:29.279Z,40.21
2018-05-26T12:24:29.452Z,40.31
2018-05-26T12:25:29.701Z,40.97
2018-05-26T12:26:29.808Z,41.73
2018-05-26T12:27:29.996Z,43.38
2018-05-26T12:28:30.167Z,45.11
2018-05-26T12:29:30.379Z,45.18
2018-05-26T12:30:30.502Z,45.48
2018-05-26T12:31:30.684Z,45.18
2018-05-26T12:32:30.871Z,45.57
2018-05-26T12:33:31.059Z,46.23
2018-05-26T12:34:31.536Z,46.45
2018-05-26T12:35:31.449Z,45.48
2018-05-26T12:36:31.589Z,45.57
2018-05-26T12:37:31.785Z,45.48
2018-05-26T12:38:31.966Z,45.57
2018-05-26T12:39:32.155Z,44.89
2018-05-26T12:40:32.321Z,43.54
2018-05-26T12:41:32.500Z,43.82
2018-05-26T12:42:32.677Z,43.34
2018-05-26T12:43:32.842Z,42.76
2018-05-26T12:45:33.281Z,44.17
2018-05-26T12:46:33.467Z,44.00
2018-05-26T12:47:33.652Z,43.82
2018-05-26T12:48:33.832Z,44.21
2018-05-26T12:49:34.017Z,44.21
2018-05-26T12:50:34.208Z,43.85
2018-05-26T12:51:34.394Z,43.85
2018-05-26T12:52:34.567Z,43.58
2018-05-26T12:53:34.756Z,43.36
2018-05-26T12:54:34.952Z,43.46
2018-05-26T12:55:35.120Z,43.58
2018-05-26T12:56:35.297Z,43.58
2018-05-26T12:57:35.476Z,42.91
2018-05-26T12:58:35.659Z,42.82
2018-05-26T12:59:35.822Z,42.04
2018-05-26T13:00:36.002Z,42.14